Time;durP1;ratioP1;P1;durP2;ratioP2;P2;SDS_P1;SDS_P2;PMS_P1;PMS_P2;Temp;Humidity;BMP_temperature;BMP_pressure;BME280_temperature;BME280_humidity;BME280_pressure;Samples;Min_cycle;Max_cycle;Signal;HPM_P1;HPM_P2
2021/04/15 00:00:38;;;;;;;8.82;4.80;;;;;;;2.06;74.04;98948.78;4991347;28;20233;-78
2021/04/15 00:03:17;;;;;;;7.00;4.43;;;;;;;2.09;74.06;98953.72;4988288;28;20030;-78
2021/04/15 00:05:44;;;;;;;7.43;4.78;;;;;;;2.08;74.13;98946.66;4987720;28;20030;-77
2021/04/15 00:08:10;;;;;;;8.55;6.00;;;;;;;1.99;73.45;98937.22;4988355;28;20117;-78
2021/04/15 00:10:39;;;;;;;7.13;4.15;;;;;;;1.94;73.61;98937.91;4983526;28;20493;-77
2021/04/15 00:13:12;;;;;;;8.68;5.15;;;;;;;1.95;74.24;98936.03;4980947;28;20027;-78
2021/04/15 00:15:37;;;;;;;10.55;6.00;;;;;;;1.93;74.00;98939.78;4975399;28;20056;-77
2021/04/15 00:18:02;;;;;;;8.77;5.07;;;;;;;1.94;74.24;98929.78;4978084;28;20061;-75
2021/04/15 00:20:28;;;;;;;8.15;4.78;;;;;;;1.97;73.55;98933.94;4983692;28;20056;-78
2021/04/15 00:22:53;;;;;;;7.22;4.35;;;;;;;1.98;73.96;98933.69;4984228;28;20087;-78
2021/04/15 00:25:19;;;;;;;9.27;4.88;;;;;;;1.99;73.33;98934.53;4985756;28;20540;-78
2021/04/15 00:27:44;;;;;;;8.27;4.70;;;;;;;2.01;73.78;98933.22;4990331;28;20030;-79
2021/04/15 00:30:11;;;;;;;6.95;4.22;;;;;;;2.01;74.01;98929.72;4985395;28;20034;-79
2021/04/15 00:32:37;;;;;;;8.88;4.50;;;;;;;1.98;73.23;98925.56;4991607;28;20046;-79
2021/04/15 00:35:03;;;;;;;7.28;4.78;;;;;;;1.98;73.75;98922.88;4978586;28;20029;-78
2021/04/15 00:37:29;;;;;;;6.88;4.25;;;;;;;1.97;73.29;98923.09;4978027;28;20540;-78
2021/04/15 00:39:54;;;;;;;6.97;4.07;;;;;;;1.92;73.71;98926.47;4983902;28;20411;-79
2021/04/15 00:42:19;;;;;;;9.75;5.00;;;;;;;1.89;73.68;98927.78;4988486;28;20376;-79
2021/04/15 00:44:45;;;;;;;6.65;5.10;;;;;;;1.87;74.01;98927.19;4983552;28;20026;-78
2021/04/15 00:47:18;;;;;;;9.13;5.78;;;;;;;1.86;73.44;98932.78;4988893;28;20039;-79
2021/04/15 00:50:01;;;;;;;8.88;4.95;;;;;;;1.81;74.28;98932.69;4984205;28;20026;-78
2021/04/15 00:52:33;;;;;;;7.18;5.18;;;;;;;1.77;73.92;98930.44;4986820;28;20034;-79
2021/04/15 00:55:02;;;;;;;6.70;4.85;;;;;;;1.72;74.25;98935.69;4978842;28;20085;-78
2021/04/15 00:57:32;;;;;;;7.50;5.00;;;;;;;1.69;73.69;98935.28;4979359;28;20033;-78
2021/04/15 00:59:58;;;;;;;6.38;4.15;;;;;;;1.64;74.80;98931.38;4976322;28;20477;-79
2021/04/15 01:02:25;;;;;;;8.23;5.70;;;;;;;1.60;74.43;98935.63;4979066;28;20067;-79
2021/04/15 01:04:54;;;;;;;7.30;4.30;;;;;;;1.62;75.12;98927.25;4985111;28;20026;-79
2021/04/15 01:07:20;;;;;;;9.02;4.97;;;;;;;1.58;75.06;98926.06;4986050;28;20084;-79
2021/04/15 01:09:48;;;;;;;6.72;4.72;;;;;;;1.49;74.96;98920.94;4985702;28;20043;-79
2021/04/15 01:12:44;;;;;;;5.93;4.05;;;;;;;1.43;74.85;98924.56;4987305;28;20030;-79
2021/04/15 01:15:22;;;;;;;5.13;4.05;;;;;;;1.40;75.10;98925.03;4982773;28;20117;-79
2021/04/15 01:18:05;;;;;;;7.32;5.47;;;;;;;1.41;75.06;98923.13;4970997;28;20084;-78
2021/04/15 01:20:58;;;;;;;6.38;4.53;;;;;;;1.38;75.25;98919.03;4975467;28;20115;-79
2021/04/15 01:23:32;;;;;;;7.57;3.92;;;;;;;1.39;75.29;98917.13;4993225;28;20116;-78
2021/04/15 01:26:30;;;;;;;7.90;5.05;;;;;;;1.34;75.04;98918.63;4998508;28;20230;-79
2021/04/15 01:28:58;;;;;;;6.25;4.45;;;;;;;1.36;75.26;98918.41;4997422;28;20469;-78
2021/04/15 01:32:04;;;;;;;8.02;5.00;;;;;;;1.32;75.47;98920.72;4995006;28;20030;-79
2021/04/15 01:34:41;;;;;;;7.20;5.07;;;;;;;1.28;75.81;98918.72;4997348;28;20042;-79
2021/04/15 01:37:22;;;;;;;9.05;4.80;;;;;;;1.26;75.62;98912.69;4986274;28;20030;-78
2021/04/15 01:39:54;;;;;;;7.97;5.63;;;;;;;1.21;75.58;98910.69;4984262;28;20023;-79
2021/04/15 01:42:43;;;;;;;7.13;5.10;;;;;;;1.19;76.36;98912.78;4984079;28;20029;-79
2021/04/15 01:45:12;;;;;;;7.43;5.40;;;;;;;1.13;75.91;98909.06;4990638;28;20027;-78
2021/04/15 01:47:46;;;;;;;8.23;5.53;;;;;;;1.02;76.03;98910.63;4989595;28;20034;-77
2021/04/15 01:50:34;;;;;;;9.57;6.38;;;;;;;0.96;76.71;98911.53;4992795;28;20516;-77
2021/04/15 01:53:07;;;;;;;11.63;7.38;;;;;;;0.99;76.94;98908.38;4991753;28;20080;-78
2021/04/15 01:55:40;;;;;;;6.88;5.03;;;;;;;1.03;76.57;98908.75;4990254;28;20030;-78
2021/04/15 01:58:21;;;;;;;7.95;5.55;;;;;;;1.05;76.89;98912.06;4985411;28;20275;-75
2021/04/15 02:00:50;;;;;;;8.45;6.40;;;;;;;1.03;76.96;98903.34;4979366;28;20027;-76
2021/04/15 02:03:23;;;;;;;10.07;6.50;;;;;;;0.97;77.44;98902.38;4985844;28;20471;-76
2021/04/15 02:05:54;;;;;;;10.23;6.38;;;;;;;0.97;76.92;98902.38;4988786;28;20174;-77
2021/04/15 02:08:23;;;;;;;9.27;5.93;;;;;;;0.99;77.30;98899.47;4988881;28;20026;-78
2021/04/15 02:11:08;;;;;;;8.32;5.82;;;;;;;0.95;77.33;98890.97;4983785;28;20483;-78
2021/04/15 02:13:37;;;;;;;10.82;7.50;;;;;;;0.91;77.22;98891.66;4989324;28;20050;-77
2021/04/15 02:16:12;;;;;;;9.00;6.60;;;;;;;0.84;77.16;98889.81;4990968;28;20564;-77
2021/04/15 02:18:43;;;;;;;14.25;8.80;;;;;;;0.82;77.10;98902.72;4985577;28;20026;-78
2021/04/15 02:21:14;;;;;;;10.82;7.35;;;;;;;0.83;77.47;98895.44;4979459;28;20113;-78
2021/04/15 02:23:49;;;;;;;8.07;6.07;;;;;;;0.92;78.01;98906.81;4980210;28;20034;-78
2021/04/15 02:26:20;;;;;;;13.88;9.20;;;;;;;0.93;77.91;98893.06;4988939;28;20061;-78
2021/04/15 02:28:52;;;;;;;23.35;10.50;;;;;;;0.92;77.76;98896.00;4993317;28;20069;-78
2021/04/15 02:31:35;;;;;;;55.92;15.57;;;;;;;0.85;77.32;98896.88;4988792;28;20039;-78
2021/04/15 02:34:06;;;;;;;21.88;9.45;;;;;;;0.87;77.63;98896.66;4983684;28;20103;-78
2021/04/15 02:36:41;;;;;;;24.55;11.20;;;;;;;0.88;78.05;98891.03;4983773;28;20030;-78
2021/04/15 02:39:29;;;;;;;15.98;9.55;;;;;;;0.89;78.11;98891.84;4986579;28;20079;-77
2021/04/15 02:41:56;;;;;;;15.32;8.98;;;;;;;0.92;77.70;98906.81;4974670;28;20030;-77
2021/04/15 02:44:28;;;;;;;18.05;8.93;;;;;;;0.88;77.78;98890.19;4975953;28;20037;-77
2021/04/15 02:47:01;;;;;;;15.77;8.77;;;;;;;0.87;78.35;98893.94;4983176;28;20037;-77
2021/04/15 02:49:30;;;;;;;16.38;9.32;;;;;;;0.86;78.51;98881.50;4984684;28;20091;-78
2021/04/15 02:52:18;;;;;;;13.10;8.93;;;;;;;0.82;78.09;98889.22;4988448;28;20031;-78
2021/04/15 02:54:52;;;;;;;12.70;7.80;;;;;;;0.81;78.48;98879.47;4981254;28;20587;-79
2021/04/15 02:57:22;;;;;;;13.50;8.75;;;;;;;0.76;78.38;98878.50;4983984;28;20436;-78
2021/04/15 02:59:57;;;;;;;16.52;9.27;;;;;;;0.77;78.54;98889.06;4986593;28;20057;-77
2021/04/15 03:02:28;;;;;;;17.92;8.95;;;;;;;0.79;78.46;98888.84;4976598;28;20561;-78
2021/04/15 03:04:57;;;;;;;20.02;9.18;;;;;;;0.79;78.61;98892.38;4976135;28;20049;-78
2021/04/15 03:07:25;;;;;;;17.52;9.57;;;;;;;0.81;78.46;98890.28;4982285;28;20050;-78
2021/04/15 03:09:52;;;;;;;15.18;8.23;;;;;;;0.80;78.71;98893.22;4983699;28;20471;-79
2021/04/15 03:12:32;;;;;;;13.38;7.93;;;;;;;0.79;78.86;98892.38;4982842;28;20545;-78
2021/04/15 03:15:00;;;;;;;;;;;;;;;0.75;79.24;98891.16;4985451;28;20065;-78
2021/04/15 03:17:27;;;;;;;13.48;8.30;;;;;;;0.74;78.82;98884.94;4985863;28;19918;-78
2021/04/15 03:20:00;;;;;;;13.25;7.78;;;;;;;0.73;78.66;98883.28;4984794;28;20061;-77
2021/04/15 03:22:37;;;;;;;13.40;8.10;;;;;;;0.72;79.09;98886.19;4979554;28;20054;-77
2021/04/15 03:25:04;;;;;;;12.55;8.10;;;;;;;0.75;78.74;98888.44;4973997;28;20049;-78
2021/04/15 03:27:32;;;;;;;10.52;7.28;;;;;;;0.75;78.70;98891.16;4981214;28;20030;-77
2021/04/15 03:30:08;;;;;;;13.70;8.55;;;;;;;0.73;78.49;98886.00;4985645;28;20092;-78
2021/04/15 03:32:49;;;;;;;11.05;7.40;;;;;;;0.73;78.69;98886.00;4984760;28;20034;-77
2021/04/15 03:35:18;;;;;;;14.75;8.77;;;;;;;0.71;78.57;98881.84;4984851;28;20054;-77
2021/04/15 03:37:57;;;;;;;10.27;6.93;;;;;;;0.70;78.80;98885.59;4985869;28;20062;-77
2021/04/15 03:40:26;;;;;;;14.85;8.65;;;;;;;0.67;78.59;98886.88;4987432;28;20486;-77
2021/04/15 03:42:56;;;;;;;11.35;8.32;;;;;;;0.65;78.96;98894.34;4981009;28;20026;-77
2021/04/15 03:45:29;;;;;;;12.10;6.90;;;;;;;0.60;78.92;98891.50;4975048;28;20042;-77
2021/04/15 03:48:05;;;;;;;13.32;8.13;;;;;;;0.54;78.97;98892.38;4975834;28;20022;-77
2021/04/15 03:51:02;;;;;;;11.50;7.78;;;;;;;0.48;79.20;98891.38;4984854;28;20071;-77
2021/04/15 03:53:39;;;;;;;11.32;7.05;;;;;;;0.47;79.38;98889.72;4980871;28;20065;-77
2021/04/15 03:56:08;;;;;;;13.88;9.38;;;;;;;0.46;79.35;98885.38;4984461;28;21299;-77
2021/04/15 03:58:57;;;;;;;12.57;7.88;;;;;;;0.47;79.42;98891.59;4983574;28;20486;-77
2021/04/15 04:01:26;;;;;;;12.02;7.00;;;;;;;0.46;80.01;98892.63;4984575;28;20035;-77
2021/04/15 04:04:23;;;;;;;9.70;6.47;;;;;;;0.46;79.82;98882.69;4981495;28;20035;-77
2021/04/15 04:06:50;;;;;;;9.43;6.93;;;;;;;0.51;79.72;98882.84;4970703;28;20046;-77
2021/04/15 04:09:24;;;;;;;15.90;8.40;;;;;;;0.49;79.82;98886.78;4963681;28;20435;-78
2021/04/15 04:11:52;;;;;;;13.00;6.95;;;;;;;0.47;79.45;98878.94;4989568;28;20065;-78
2021/04/15 04:14:31;;;;;;;9.93;8.27;;;;;;;0.45;79.86;98881.03;4986412;28;20812;-77
2021/04/15 04:17:07;;;;;;;10.43;6.68;;;;;;;0.46;79.92;98882.69;4980224;28;20121;-78
2021/04/15 04:19:54;;;;;;;14.88;8.77;;;;;;;0.42;79.98;98886.84;4983522;28;20026;-78
2021/04/15 04:22:37;;;;;;;10.77;7.15;;;;;;;0.41;80.19;98885.22;4983098;28;20030;-78
2021/04/15 04:25:21;;;;;;;10.98;8.20;;;;;;;0.39;79.88;98887.28;4982055;28;20449;-77
2021/04/15 04:28:01;;;;;;;11.02;7.72;;;;;;;0.41;80.06;98887.91;4974665;28;20030;-77
2021/04/15 04:30:34;;;;;;;9.32;6.32;;;;;;;0.45;80.33;98891.81;4977473;28;20038;-78
2021/04/15 04:33:04;;;;;;;10.18;6.28;;;;;;;0.44;79.88;98890.97;4984821;28;20105;-76
2021/04/15 04:35:33;;;;;;;12.70;7.88;;;;;;;0.42;79.96;98897.66;4984986;28;20355;-77
2021/04/15 04:38:03;;;;;;;12.13;6.95;;;;;;;0.37;80.31;98901.03;4984956;28;20071;-78
2021/04/15 04:40:35;;;;;;;7.57;5.63;;;;;;;0.37;80.29;98901.03;4985655;28;20121;-76
2021/04/15 04:43:09;;;;;;;10.38;6.40;;;;;;;0.38;80.00;98897.28;4985329;28;20113;-77
2021/04/15 04:45:34;;;;;;;14.07;7.93;;;;;;;0.37;80.25;98901.03;4981810;28;20119;-77
2021/04/15 04:48:11;;;;;;;11.48;8.43;;;;;;;0.39;80.17;98898.09;4974748;28;20113;-79
2021/04/15 04:51:00;;;;;;;14.48;10.02;;;;;;;0.39;80.09;98892.69;4977444;28;20521;-78
2021/04/15 04:53:25;;;;;;;18.67;10.05;;;;;;;0.42;80.12;98894.94;4983502;28;20042;-78
2021/04/15 04:56:12;;;;;;;14.25;7.93;;;;;;;0.42;80.25;98890.38;4983562;28;20732;-78
2021/04/15 04:58:38;;;;;;;12.05;8.60;;;;;;;0.44;80.03;98893.69;4982763;28;20486;-79
2021/04/15 05:01:06;;;;;;;11.30;8.05;;;;;;;0.49;80.51;98895.72;4982602;28;20030;-79
2021/04/15 05:03:32;;;;;;;15.13;8.02;;;;;;;0.51;79.99;98901.75;4985315;28;20091;-79
2021/04/15 05:06:00;;;;;;;11.45;8.13;;;;;;;0.49;80.37;98893.03;4983255;28;20054;-79
2021/04/15 05:08:30;;;;;;;17.13;9.27;;;;;;;0.52;79.89;98899.84;4973517;28;20294;-79
2021/04/15 05:10:57;;;;;;;8.68;5.97;;;;;;;0.49;80.25;98903.00;4970813;28;20026;-78
2021/04/15 05:13:28;;;;;;;8.85;6.53;;;;;;;0.44;80.04;98900.97;4979660;28;20029;-80
2021/04/15 05:15:54;;;;;;;9.13;6.25;;;;;;;0.39;79.95;98893.53;4984601;28;20064;-77
2021/04/15 05:18:22;;;;;;;9.82;6.32;;;;;;;0.41;80.26;98890.59;4983427;28;20022;-77
2021/04/15 05:20:49;;;;;;;8.43;6.88;;;;;;;0.40;80.40;98899.75;4983223;28;20033;-78
2021/04/15 05:23:33;;;;;;;10.32;6.63;;;;;;;0.42;80.50;98889.56;4984605;28;20031;-78
2021/04/15 05:26:12;;;;;;;10.38;6.80;;;;;;;0.40;79.98;98888.94;4979800;28;20235;-78
2021/04/15 05:28:39;;;;;;;14.57;7.68;;;;;;;0.40;80.38;98889.78;4979062;28;20033;-77
2021/04/15 05:31:08;;;;;;;13.63;9.05;;;;;;;0.38;80.37;98886.47;4973567;28;20024;-77
2021/04/15 05:33:35;;;;;;;8.00;6.47;;;;;;;0.38;80.27;98901.84;4977096;28;20031;-78
2021/04/15 05:36:22;;;;;;;10.23;7.35;;;;;;;0.37;80.08;98894.78;4983177;28;20042;-78
2021/04/15 05:38:51;;;;;;;14.27;8.52;;;;;;;0.37;80.03;98892.09;4982047;28;20034;-79
2021/04/15 05:41:20;;;;;;;12.00;7.82;;;;;;;0.40;80.40;98897.03;4985187;28;20034;-79
2021/04/15 05:43:48;;;;;;;12.07;8.38;;;;;;;0.44;80.45;98885.59;4985055;28;20030;-79
2021/04/15 05:46:22;;;;;;;14.32;7.28;;;;;;;0.46;80.07;98887.22;4984384;28;20070;-79
2021/04/15 05:48:53;;;;;;;8.82;5.47;;;;;;;0.48;80.29;98887.84;4979520;28;20041;-79
2021/04/15 05:51:24;;;;;;;7.72;5.78;;;;;;;0.51;80.34;98890.09;4970147;28;20313;-79
2021/04/15 05:53:53;;;;;;;7.38;5.50;;;;;;;0.50;80.55;98891.16;4979738;28;20596;-79
2021/04/15 05:56:25;;;;;;;22.67;13.27;;;;;;;0.53;80.37;98890.72;4984007;28;20030;-76
2021/04/15 05:59:21;;;;;;;8.82;6.65;;;;;;;0.58;80.59;98888.19;4985103;28;20034;-76
2021/04/15 06:01:51;;;;;;;9.50;6.50;;;;;;;0.62;80.13;98885.84;4983376;28;20023;-76
2021/04/15 06:04:33;;;;;;;7.40;5.38;;;;;;;0.63;80.33;98890.22;4982631;28;20088;-76
2021/04/15 06:07:02;;;;;;;8.88;6.03;;;;;;;0.59;80.13;98887.97;4982224;28;20046;-74
2021/04/15 06:09:27;;;;;;;11.20;6.72;;;;;;;0.62;80.81;98884.00;4984459;28;20035;-74
2021/04/15 06:12:03;;;;;;;6.55;4.57;;;;;;;0.63;80.32;98874.00;4978415;28;20022;-75
2021/04/15 06:14:51;;;;;;;9.38;5.50;;;;;;;0.66;80.42;98882.50;4976112;28;20018;-75
2021/04/15 06:17:31;;;;;;;9.23;4.68;;;;;;;0.65;80.36;98875.47;4985257;28;20022;-76
2021/04/15 06:20:10;;;;;;;14.15;6.60;;;;;;;0.66;80.17;98878.97;4984301;28;20037;-75
2021/04/15 06:22:42;;;;;;;8.07;6.07;;;;;;;0.70;80.47;98875.63;4984800;28;20558;-75
2021/04/15 06:25:16;;;;;;;6.90;4.90;;;;;;;0.73;80.11;98864.38;4985693;28;20061;-75
2021/04/15 06:27:44;;;;;;;5.70;4.03;;;;;;;0.75;80.22;98874.94;4986183;28;20038;-75
2021/04/15 06:30:27;;;;;;;11.18;5.70;;;;;;;0.76;80.06;98862.28;4985690;28;20115;-75
2021/04/15 06:33:06;;;;;;;12.43;5.45;;;;;;;0.74;79.81;98876.00;4975875;28;20115;-75
2021/04/15 06:35:33;;;;;;;7.70;4.88;;;;;;;0.76;80.37;98868.50;4975748;28;20026;-75
2021/04/15 06:38:20;;;;;;;11.73;5.13;;;;;;;0.78;80.26;98876.41;4984826;28;20109;-75
2021/04/15 06:41:23;;;;;;;9.23;5.40;;;;;;;0.79;80.08;98865.38;4981867;28;20470;-76
2021/04/15 06:43:49;;;;;;;12.13;4.47;;;;;;;0.84;79.91;98870.94;4941448;28;20039;-76
2021/04/15 06:46:24;;;;;;;7.47;3.85;;;;;;;0.86;80.01;98859.88;4941002;28;20038;-75
2021/04/15 06:49:41;;;;;;;8.82;4.60;;;;;;;0.95;79.84;98865.84;4963952;28;20050;-75
2021/04/15 06:52:25;;;;;;;7.30;4.20;;;;;;;1.02;79.89;98862.03;4955783;28;20462;-75
2021/04/15 06:55:21;;;;;;;5.65;3.88;;;;;;;1.04;79.64;98857.22;4976147;28;20038;-76
2021/04/15 06:58:28;;;;;;;4.45;3.03;;;;;;;1.06;79.20;98859.69;4980551;28;20379;-76
2021/04/15 07:01:01;;;;;;;6.20;4.10;;;;;;;1.08;79.68;98852.19;4965280;28;20046;-75
2021/04/15 07:03:42;;;;;;;7.47;4.68;;;;;;;1.09;80.15;98851.13;4985133;28;20026;-75
2021/04/15 07:06:28;;;;;;;4.93;4.20;;;;;;;1.14;79.68;98856.69;4985114;28;20054;-75
2021/04/15 07:09:13;;;;;;;4.70;3.58;;;;;;;1.19;79.33;98862.25;4984683;28;20083;-75
2021/04/15 07:12:07;;;;;;;7.85;4.50;;;;;;;1.21;79.25;98859.34;4985185;28;20054;-75
2021/04/15 07:14:49;;;;;;;6.43;5.30;;;;;;;1.24;79.32;98860.75;4976074;28;20438;-75
2021/04/15 07:17:23;;;;;;;6.03;4.00;;;;;;;1.27;79.44;98860.31;4984906;28;20022;-76
2021/04/15 07:20:26;;;;;;;6.72;5.35;;;;;;;1.27;79.37;98876.53;5010313;28;20098;-76
2021/04/15 07:23:32;;;;;;;7.05;4.97;;;;;;;1.30;79.04;98868.78;5011686;28;20037;-76
2021/04/15 07:26:00;;;;;;;6.63;4.95;;;;;;;1.31;79.15;98861.50;5010824;28;20037;-76
2021/04/15 07:29:01;;;;;;;6.05;5.28;;;;;;;1.23;79.37;98861.81;5011042;28;20032;-76
2021/04/15 07:31:41;;;;;;;8.63;6.13;;;;;;;1.16;78.93;98872.69;5011676;28;20486;-76
2021/04/15 07:34:28;;;;;;;6.20;5.55;;;;;;;1.17;79.40;98868.94;5011444;28;20486;-76
2021/04/15 07:37:30;;;;;;;5.15;4.13;;;;;;;1.12;79.41;98864.19;5011404;28;20057;-75
2021/04/15 07:40:02;;;;;;;8.48;5.63;;;;;;;1.17;79.24;98860.84;5011469;28;20025;-75
2021/04/15 07:43:01;;;;;;;10.27;6.72;;;;;;;1.15;79.26;98866.44;5011509;28;20033;-76
2021/04/15 07:45:40;;;;;;;8.60;6.10;;;;;;;1.13;79.56;98865.03;4993784;28;20021;-76
2021/04/15 07:48:43;;;;;;;7.47;5.20;;;;;;;1.13;79.10;98860.44;5011487;28;20444;-76
2021/04/15 07:51:26;;;;;;;9.40;5.40;;;;;;;1.21;79.76;98870.16;5011146;28;20038;-76
2021/04/15 07:54:13;;;;;;;8.35;5.95;;;;;;;1.27;79.60;98866.53;5011300;28;20042;-76
2021/04/15 07:57:07;;;;;;;5.63;4.15;;;;;;;1.31;79.17;98866.91;4993416;28;20117;-76
2021/04/15 07:59:50;;;;;;;8.85;4.60;;;;;;;1.34;79.30;98869.97;5010679;28;20042;-75
2021/04/15 08:02:18;;;;;;;6.75;4.82;;;;;;;1.47;79.19;98865.47;5010836;28;20063;-76
2021/04/15 08:05:02;;;;;;;5.85;4.40;;;;;;;1.51;79.33;98868.53;4993372;28;20069;-75
2021/04/15 08:07:54;;;;;;;7.22;5.03;;;;;;;1.46;79.11;98859.22;5010412;28;20054;-76
2021/04/15 08:10:31;;;;;;;7.10;5.13;;;;;;;1.55;79.02;98861.63;5010641;28;20109;-75
2021/04/15 08:13:18;;;;;;;7.82;5.10;;;;;;;1.51;78.55;98857.72;5010619;28;20032;-76
2021/04/15 08:16:14;;;;;;;10.70;6.80;;;;;;;1.59;79.36;98870.94;5010641;28;20110;-76
2021/04/15 08:18:47;;;;;;;7.22;4.60;;;;;;;1.67;78.58;98861.69;5010376;28;20037;-75
2021/04/15 08:21:41;;;;;;;12.27;9.70;;;;;;;1.73;78.91;98864.31;5010519;28;20044;-76
2021/04/15 08:24:29;;;;;;;10.32;6.43;;;;;;;1.71;78.86;98860.19;4992887;28;20030;-75
2021/04/15 08:27:24;;;;;;;11.43;6.93;;;;;;;1.64;78.27;98865.69;5009714;28;20396;-75
2021/04/15 08:30:23;;;;;;;27.02;9.60;;;;;;;1.56;78.48;98864.13;5009639;28;20026;-76
2021/04/15 08:33:18;;;;;;;28.85;10.48;;;;;;;1.53;78.46;98864.56;5010519;28;20050;-77
2021/04/15 08:35:49;;;;;;;78.63;20.75;;;;;;;1.51;78.38;98858.56;4992442;28;20132;-76
2021/04/15 08:38:29;;;;;;;27.80;9.77;;;;;;;1.48;78.38;98854.44;4992848;28;20038;-80
2021/04/15 08:41:13;;;;;;;15.30;7.13;;;;;;;1.45;78.25;98862.16;5010362;28;20072;-80
2021/04/15 08:43:58;;;;;;;48.70;14.65;;;;;;;1.48;78.60;98859.03;5010288;28;20064;-79
2021/04/15 08:46:42;;;;;;;53.42;16.40;;;;;;;1.51;78.32;98871.25;5010253;28;20478;-77
2021/04/15 08:49:41;;;;;;;27.25;8.85;;;;;;;1.49;78.45;98850.66;5009992;28;20469;-78
2021/04/15 08:52:45;;;;;;;15.27;6.72;;;;;;;1.57;78.65;98857.66;5009950;28;20072;-76
2021/04/15 08:55:34;;;;;;;58.25;19.77;;;;;;;1.57;78.77;98862.22;5014446;28;20056;-77
2021/04/15 08:58:20;;;;;;;28.38;12.02;;;;;;;1.63;79.16;98847.81;5010488;28;20107;-77
2021/04/15 09:01:23;;;;;;;31.90;13.75;;;;;;;1.66;78.63;98857.31;5010151;28;20037;-76
2021/04/15 09:03:51;;;;;;;29.02;16.60;;;;;;;1.66;78.29;98854.63;5010159;28;20044;-77
2021/04/15 09:06:22;;;;;;;59.00;25.17;;;;;;;1.59;78.50;98850.16;5010006;28;20050;-77
2021/04/15 09:09:06;;;;;;;49.25;21.30;;;;;;;1.58;78.87;98855.78;5009858;28;20169;-77
2021/04/15 09:11:39;;;;;;;36.78;16.50;;;;;;;1.65;78.57;98859.22;5009822;28;20026;-77
2021/04/15 09:14:10;;;;;;;35.25;14.95;;;;;;;1.69;78.30;98854.16;4992113;28;20549;-77
2021/04/15 09:16:49;;;;;;;33.75;14.63;;;;;;;1.70;78.33;98855.81;5009575;28;20059;-77
2021/04/15 09:19:35;;;;;;;17.00;9.00;;;;;;;1.72;78.57;98862.66;5009636;28;20477;-77
2021/04/15 09:22:18;;;;;;;35.08;15.63;;;;;;;1.73;77.80;98848.09;5009817;28;20057;-77
2021/04/15 09:25:08;;;;;;;30.42;13.40;;;;;;;1.78;77.81;98855.50;5008559;28;20040;-77
2021/04/15 09:28:03;;;;;;;36.42;15.75;;;;;;;1.81;78.33;98852.34;4988768;28;20119;-77
2021/04/15 09:31:07;;;;;;;21.70;12.25;;;;;;;1.87;78.21;98858.72;4988465;28;20045;-77
2021/04/15 09:34:10;;;;;;;31.13;13.07;;;;;;;1.86;78.33;98852.50;4988700;28;20127;-77
2021/04/15 09:36:50;;;;;;;16.17;10.20;;;;;;;1.81;78.05;98849.66;4989498;28;20034;-77
2021/04/15 09:39:53;;;;;;;23.33;10.95;;;;;;;1.77;78.49;98854.69;4989508;28;20038;-77
2021/04/15 09:42:43;;;;;;;24.35;10.85;;;;;;;1.78;78.63;98852.81;4973985;28;20044;-77
2021/04/15 09:45:36;;;;;;;26.90;12.18;;;;;;;1.76;78.18;98853.06;4993491;28;20074;-77
2021/04/15 09:48:35;;;;;;;29.90;13.02;;;;;;;1.86;78.46;98854.34;4993351;28;20042;-77
2021/04/15 09:51:17;;;;;;;30.50;14.00;;;;;;;1.89;77.80;98846.63;4993084;28;20035;-77
2021/04/15 09:54:07;;;;;;;299.25;102.88;;;;;;;1.90;78.07;98844.72;4993190;28;20105;-77
2021/04/15 09:56:51;;;;;;;254.70;102.95;;;;;;;1.88;77.88;98844.97;4993142;28;20084;-78
2021/04/15 09:59:19;;;;;;;18.30;11.07;;;;;;;1.87;77.54;98851.44;4992986;28;20471;-78
2021/04/15 10:01:53;;;;;;;39.90;20.60;;;;;;;1.87;78.05;98845.19;4993099;28;20022;-77
2021/04/15 10:04:51;;;;;;;25.48;9.98;;;;;;;1.86;78.15;98848.94;4993016;28;20552;-78
2021/04/15 10:07:24;;;;;;;56.22;15.77;;;;;;;1.77;78.01;98845.75;4992391;28;20046;-78
2021/04/15 10:10:05;;;;;;;81.78;26.20;;;;;;;1.76;77.93;98844.94;4993109;28;20030;-78
2021/04/15 10:13:15;;;;;;;38.60;15.02;;;;;;;1.71;77.86;98841.25;4975605;28;20026;-78
2021/04/15 10:16:02;;;;;;;47.92;18.52;;;;;;;1.69;77.57;98843.34;5009471;28;20030;-77
2021/04/15 10:18:59;;;;;;;18.92;10.77;;;;;;;1.67;77.86;98842.75;5011617;28;20498;-77
2021/04/15 10:21:33;;;;;;;43.95;16.13;;;;;;;1.69;77.61;98841.50;4994563;28;20052;-77
2021/04/15 10:23:58;;;;;;;39.28;13.98;;;;;;;1.75;78.13;98839.75;5012099;28;20028;-78
2021/04/15 10:26:30;;;;;;;29.13;12.38;;;;;;;1.79;77.76;98846.34;5012468;28;20108;-78
2021/04/15 10:28:58;;;;;;;28.27;11.80;;;;;;;1.78;78.17;98848.22;5012182;28;20057;-78
2021/04/15 10:31:27;;;;;;;13.73;9.30;;;;;;;1.79;78.36;98846.34;5012138;28;20034;-78
2021/04/15 10:34:08;;;;;;;28.02;11.82;;;;;;;1.79;78.22;98843.63;5012352;28;20018;-78
2021/04/15 10:36:53;;;;;;;10.90;6.90;;;;;;;1.78;78.07;98845.53;5012301;28;20097;-78
2021/04/15 10:39:21;;;;;;;20.08;8.55;;;;;;;1.80;78.31;98842.59;5011946;28;20048;-78
2021/04/15 10:42:14;;;;;;;15.32;8.07;;;;;;;1.79;78.32;98838.22;5012104;28;20033;-77
2021/04/15 10:45:12;;;;;;;25.92;10.07;;;;;;;1.69;77.68;98841.50;4994503;28;20030;-78
2021/04/15 10:47:49;;;;;;;12.80;7.85;;;;;;;1.67;77.71;98846.31;4994228;28;20034;-77
2021/04/15 10:50:15;;;;;;;19.10;9.38;;;;;;;1.68;78.03;98842.53;5012017;28;20040;-78
2021/04/15 10:52:59;;;;;;;12.60;7.10;;;;;;;1.63;77.78;98842.41;5011731;28;20117;-78
2021/04/15 10:55:33;;;;;;;15.50;9.00;;;;;;;1.63;78.04;98839.69;5011791;28;20022;-78
2021/04/15 10:58:30;;;;;;;11.75;6.85;;;;;;;1.59;78.41;98838.50;5011922;28;20082;-78
2021/04/15 11:00:59;;;;;;;20.52;10.73;;;;;;;1.59;78.08;98833.09;4994402;28;20050;-78
2021/04/15 11:03:34;;;;;;;26.10;15.73;;;;;;;1.63;78.49;98828.88;5011646;28;20032;-78
2021/04/15 11:06:00;;;;;;;25.27;12.73;;;;;;;1.67;77.94;98829.22;5011609;28;20142;-78
2021/04/15 11:08:29;;;;;;;10.63;8.88;;;;;;;1.67;78.46;98832.78;5011708;28;20478;-78
2021/04/15 11:11:18;;;;;;;23.30;11.93;;;;;;;1.63;78.50;98837.81;5011606;28;20022;-77
2021/04/15 11:13:44;;;;;;;17.83;11.48;;;;;;;1.70;78.62;98839.59;5011561;28;20500;-77
2021/04/15 11:16:21;;;;;;;33.47;15.95;;;;;;;1.65;77.97;98834.88;5011566;28;20030;-77
2021/04/15 11:18:48;;;;;;;19.73;8.77;;;;;;;1.61;78.58;98837.22;5011590;28;20048;-78
2021/04/15 11:21:24;;;;;;;12.98;8.40;;;;;;;1.62;77.79;98836.19;5011446;28;20026;-77
2021/04/15 11:23:52;;;;;;;11.82;7.20;;;;;;;1.71;78.55;98838.53;5011497;28;20026;-78
2021/04/15 11:26:23;;;;;;;20.83;10.73;;;;;;;1.67;78.37;98834.63;5011703;28;20030;-78
2021/04/15 11:28:52;;;;;;;12.65;8.05;;;;;;;1.66;78.38;98833.00;5011552;28;20133;-77
2021/04/15 11:31:28;;;;;;;16.48;9.63;;;;;;;1.71;78.57;98836.69;5011283;28;20083;-77
2021/04/15 11:34:12;;;;;;;26.23;12.80;;;;;;;1.73;77.92;98836.44;5011335;28;20026;-78
2021/04/15 11:36:43;;;;;;;21.02;9.88;;;;;;;1.79;78.83;98835.53;5011104;28;20105;-78
2021/04/15 11:39:15;;;;;;;8.25;5.63;;;;;;;1.82;78.19;98834.25;5011225;28;20105;-78
2021/04/15 11:41:41;;;;;;;11.20;8.23;;;;;;;1.87;78.21;98834.38;5011293;28;20026;-78
2021/04/15 11:44:13;;;;;;;9.95;7.15;;;;;;;1.89;78.07;98833.09;5011112;28;20071;-78
2021/04/15 11:46:47;;;;;;;14.55;8.63;;;;;;;1.97;78.22;98840.06;4993644;28;20057;-78
2021/04/15 11:49:23;;;;;;;43.50;16.80;;;;;;;1.99;78.08;98832.53;5010925;28;20033;-78
2021/04/15 11:52:14;;;;;;;37.03;15.82;;;;;;;1.97;78.02;98834.66;5011194;28;20069;-78
2021/04/15 11:54:44;;;;;;;12.50;7.18;;;;;;;2.02;78.21;98839.38;5010869;28;20105;-78
2021/04/15 11:57:19;;;;;;;11.35;6.32;;;;;;;1.93;77.27;98831.59;5010813;28;20034;-79
2021/04/15 12:00:02;;;;;;;13.80;8.35;;;;;;;1.86;77.32;98838.13;5010793;28;20118;-78
2021/04/15 12:02:35;;;;;;;19.60;13.55;;;;;;;1.89;77.39;98829.56;5010805;28;20041;-78
2021/04/15 12:05:18;;;;;;;19.25;12.75;;;;;;;2.01;78.50;98835.84;5010760;28;20030;-78
2021/04/15 12:07:51;;;;;;;17.02;11.48;;;;;;;2.08;77.80;98820.34;5010473;28;20148;-78
2021/04/15 12:10:21;;;;;;;18.67;8.23;;;;;;;2.07;78.04;98824.09;5010710;28;20030;-78
2021/04/15 12:12:49;;;;;;;12.25;6.30;;;;;;;2.01;77.29;98835.84;5010764;28;20037;-77
2021/04/15 12:15:25;;;;;;;46.95;16.02;;;;;;;1.95;77.58;98827.81;5010716;28;20025;-77
2021/04/15 12:17:59;;;;;;;14.05;7.18;;;;;;;1.95;78.29;98833.25;4993038;28;20153;-78
2021/04/15 12:20:57;;;;;;;14.13;7.88;;;;;;;1.92;78.15;98829.94;5010786;28;20022;-78
2021/04/15 12:23:39;;;;;;;13.02;7.47;;;;;;;1.95;77.74;98825.94;4996961;28;20045;-78